Time;durP1;ratioP1;P1;durP2;ratioP2;P2;SDS_P1;SDS_P2;PMS_P1;PMS_P2;Temp;Humidity;BMP_temperature;BMP_pressure;BME280_temperature;BME280_humidity;BME280_pressure;Samples;Min_cycle;Max_cycle;Signal;HPM_P1;HPM_P2
2021/12/08 00:00:03;;;;;;;8.38;1.52;;;;;;;1.46;100.00;98502.97;5058852;28;20024;-76
2021/12/08 00:02:29;;;;;;;13.75;1.88;;;;;;;1.46;100.00;98508.44;5060852;28;20103;-77
2021/12/08 00:04:54;;;;;;;9.30;1.85;;;;;;;1.49;100.00;98514.16;5046992;28;20507;-76
2021/12/08 00:07:20;;;;;;;8.35;1.63;;;;;;;1.47;100.00;98510.88;5087740;28;20028;-76
2021/12/08 00:09:49;;;;;;;9.20;1.40;;;;;;;1.46;100.00;98511.97;5102105;28;20031;-77
2021/12/08 00:14:58;;;;;;;9.73;2.10;;;;;;;1.49;100.00;98519.63;5074720;28;20027;-77
2021/12/08 00:17:24;;;;;;;9.32;1.83;;;;;;;1.48;100.00;98512.53;5095312;28;20032;-76
2021/12/08 00:19:49;;;;;;;9.32;1.95;;;;;;;1.47;100.00;98516.34;5102008;28;20032;-77
2021/12/08 00:22:15;;;;;;;9.23;1.95;;;;;;;1.49;100.00;98516.88;5078772;28;20099;-76
2021/12/08 00:24:40;;;;;;;8.55;1.92;;;;;;;1.46;100.00;98520.19;5060423;28;20032;-77
2021/12/08 00:27:06;;;;;;;13.50;2.05;;;;;;;1.47;100.00;98510.06;5065420;28;20029;-76
2021/12/08 00:29:31;;;;;;;11.50;2.08;;;;;;;1.48;100.00;98507.06;5059665;28;20044;-76
2021/12/08 00:31:58;;;;;;;10.43;1.90;;;;;;;1.45;100.00;98509.50;5086800;28;20057;-76
2021/12/08 00:34:23;;;;;;;14.48;1.73;;;;;;;1.46;100.00;98517.47;5080165;28;20028;-76
2021/12/08 00:36:52;;;;;;;6.43;1.50;;;;;;;1.47;100.00;98523.75;5095754;28;20031;-76
2021/12/08 00:39:18;;;;;;;12.40;2.42;;;;;;;1.47;100.00;98513.59;5098050;28;20493;-77
2021/12/08 00:41:43;;;;;;;13.55;2.28;;;;;;;1.46;100.00;98508.44;5067920;28;20020;-76
2021/12/08 00:44:09;;;;;;;7.97;1.67;;;;;;;1.46;100.00;98502.97;5083790;28;20031;-76
2021/12/08 00:46:36;;;;;;;9.30;1.95;;;;;;;1.45;100.00;98504.03;5071248;28;20032;-76
2021/12/08 00:49:03;;;;;;;8.85;1.40;;;;;;;1.44;100.00;98505.97;5056850;28;20028;-76
2021/12/08 00:51:28;;;;;;;7.57;1.90;;;;;;;1.46;100.00;98495.56;5062018;28;20027;-76
2021/12/08 00:53:54;;;;;;;11.32;1.75;;;;;;;1.48;100.00;98498.84;5096656;28;20062;-76
2021/12/08 00:56:19;;;;;;;9.18;1.85;;;;;;;1.46;100.00;98487.38;5104339;28;20031;-77
2021/12/08 00:58:45;;;;;;;8.35;1.50;;;;;;;1.49;100.00;98502.41;5096552;28;20039;-77
2021/12/08 01:01:12;;;;;;;10.38;1.85;;;;;;;1.50;100.00;98509.50;5099191;28;20468;-77
2021/12/08 01:03:38;;;;;;;8.82;1.80;;;;;;;1.51;100.00;98502.94;5059420;28;20628;-77
2021/12/08 01:06:03;;;;;;;4.80;1.67;;;;;;;1.53;100.00;98503.44;5064618;28;20024;-76
2021/12/08 01:08:32;;;;;;;9.68;1.40;;;;;;;1.55;100.00;98501.25;5026434;28;20039;-76
2021/12/08 01:11:01;;;;;;;9.90;1.83;;;;;;;1.56;100.00;98509.19;5063327;28;20126;-76
2021/12/08 01:13:26;;;;;;;9.68;1.80;;;;;;;1.60;100.00;98505.88;5060617;28;20032;-77
2021/12/08 01:15:54;;;;;;;7.55;1.35;;;;;;;1.61;100.00;98499.31;5064416;28;20165;-76
2021/12/08 01:18:20;;;;;;;8.60;1.60;;;;;;;1.64;100.00;98496.00;5058046;28;20027;-76
2021/12/08 01:20:46;;;;;;;11.02;1.73;;;;;;;1.63;100.00;98505.31;5060052;28;20048;-76
2021/12/08 01:23:11;;;;;;;8.82;1.48;;;;;;;1.65;100.00;98503.94;5059832;28;20031;-77
2021/12/08 01:25:37;;;;;;;11.77;1.55;;;;;;;1.67;100.00;98506.38;5062338;28;20041;-77
2021/12/08 01:28:02;;;;;;;8.43;1.48;;;;;;;1.67;100.00;98498.16;5054243;28;20412;-76
2021/12/08 01:30:28;;;;;;;9.85;1.52;;;;;;;1.68;100.00;98495.16;5069634;28;20034;-76
2021/12/08 01:32:55;;;;;;;10.05;1.55;;;;;;;1.69;100.00;98512.38;5066521;28;20070;-76
2021/12/08 01:35:21;;;;;;;8.38;1.58;;;;;;;1.70;100.00;98511.25;5087296;28;20032;-76
2021/12/08 01:37:46;;;;;;;9.30;1.73;;;;;;;1.69;100.00;98495.97;5069314;28;20093;-76
2021/12/08 01:40:12;;;;;;;10.60;1.80;;;;;;;1.67;100.00;98504.47;5050703;28;20029;-77
2021/12/08 01:42:45;;;;;;;6.18;1.40;;;;;;;1.67;100.00;98503.63;5052174;28;20114;-77
2021/12/08 01:47:55;;;;;;;6.85;1.25;;;;;;;1.63;100.00;98484.22;5086701;28;20024;-76
2021/12/08 01:50:21;;;;;;;5.55;1.20;;;;;;;1.64;100.00;98499.53;5081809;28;20024;-76
2021/12/08 01:52:47;;;;;;;4.88;1.17;;;;;;;1.63;100.00;98514.34;5045643;28;20032;-76
2021/12/08 01:55:13;;;;;;;7.93;1.13;;;;;;;1.64;100.00;98510.47;5058253;28;20029;-77
2021/12/08 01:57:38;;;;;;;12.27;1.38;;;;;;;1.63;100.00;98508.06;5064781;28;20032;-77
2021/12/08 02:00:10;;;;;;;6.40;1.05;;;;;;;1.62;100.00;98512.72;5071019;28;20028;-76
2021/12/08 02:02:35;;;;;;;5.78;1.00;;;;;;;1.57;100.00;98518.22;5064778;28;20032;-76
2021/12/08 02:05:01;;;;;;;4.45;0.88;;;;;;;1.58;100.00;98516.28;5073969;28;20066;-77
2021/12/08 02:07:26;;;;;;;6.57;1.15;;;;;;;1.58;100.00;98524.50;5056171;28;20033;-76
2021/12/08 02:09:52;;;;;;;6.38;1.13;;;;;;;1.58;100.00;98539.00;5062778;28;20062;-76
2021/12/08 02:12:17;;;;;;;8.35;0.90;;;;;;;1.58;100.00;98539.00;5063628;28;20035;-76
2021/12/08 02:14:43;;;;;;;4.93;0.88;;;;;;;1.58;100.00;98568.28;5060145;28;20035;-76
2021/12/08 02:17:10;;;;;;;3.92;1.00;;;;;;;1.56;100.00;98571.28;5078388;28;20035;-76
2021/12/08 02:19:37;;;;;;;4.90;0.85;;;;;;;1.54;100.00;98581.72;5070107;28;20462;-77
2021/12/08 02:22:03;;;;;;;4.90;0.95;;;;;;;1.55;100.00;98583.34;5067880;28;20034;-76
2021/12/08 02:24:28;;;;;;;3.65;1.23;;;;;;;1.50;100.00;98586.91;5036542;28;20653;-76
2021/12/08 02:26:55;;;;;;;6.13;1.35;;;;;;;1.48;100.00;98591.88;5096680;28;20047;-76
2021/12/08 02:29:31;;;;;;;3.80;1.10;;;;;;;1.49;100.00;98601.69;5076003;28;20522;-76
2021/12/08 02:32:04;;;;;;;5.05;0.88;;;;;;;1.45;100.00;98611.56;5048879;28;20036;-77
2021/12/08 02:48:10;;;;;;;4.75;0.80;;;;;;;1.26;100.00;98575.00;5085559;28;20463;-77
2021/12/08 02:50:37;;;;;;;3.75;0.88;;;;;;;1.25;100.00;98578.81;5099870;28;20035;-76
2021/12/08 02:53:03;;;;;;;3.28;0.75;;;;;;;1.21;100.00;98566.81;5100931;28;20034;-77
2021/12/08 02:55:29;;;;;;;1.98;0.50;;;;;;;1.21;100.00;98572.28;5068228;28;20028;-77
2021/12/08 02:57:55;;;;;;;3.97;0.65;;;;;;;1.19;100.00;98575.28;5080618;28;20036;-77
2021/12/08 03:00:26;;;;;;;1.77;0.70;;;;;;;1.14;100.00;98586.25;5104509;28;20035;-76
2021/12/08 03:02:53;;;;;;;4.18;0.77;;;;;;;1.15;100.00;98574.22;5068458;28;20036;-76
2021/12/08 03:05:18;;;;;;;4.90;0.88;;;;;;;1.13;100.00;98581.88;5096511;28;20028;-76
2021/12/08 03:07:44;;;;;;;3.13;1.13;;;;;;;1.10;100.00;98580.53;5062666;28;20078;-76
2021/12/08 03:10:15;;;;;;;3.03;0.85;;;;;;;1.08;100.00;98573.69;5107339;28;20036;-76
2021/12/08 03:12:41;;;;;;;3.65;0.60;;;;;;;1.06;100.00;98571.25;5062668;28;20031;-76
2021/12/08 03:15:07;;;;;;;4.60;0.70;;;;;;;1.04;100.00;98559.78;5046272;28;20032;-76
2021/12/08 03:17:34;;;;;;;3.15;0.80;;;;;;;1.04;100.00;98561.69;5084179;28;20462;-76
2021/12/08 03:20:00;;;;;;;4.88;0.70;;;;;;;1.02;100.00;98564.69;5070705;28;20033;-76
2021/12/08 03:22:26;;;;;;;2.55;0.65;;;;;;;1.04;100.00;98567.97;5058976;28;20040;-76
2021/12/08 03:24:53;;;;;;;3.63;0.60;;;;;;;0.99;100.00;98575.38;5044961;28;20031;-76
2021/12/08 03:27:25;;;;;;;4.85;0.70;;;;;;;1.00;100.00;98575.09;5095268;28;20428;-76
2021/12/08 03:32:25;;;;;;;5.40;0.80;;;;;;;0.95;100.00;98588.78;5079162;28;20032;-76
2021/12/08 03:34:52;;;;;;;6.50;1.20;;;;;;;0.91;100.00;98586.88;5065158;28;20036;-76
2021/12/08 03:37:23;;;;;;;3.80;0.80;;;;;;;0.92;100.00;98585.78;5102202;28;20503;-76
2021/12/08 03:39:50;;;;;;;5.38;1.00;;;;;;;0.91;100.00;98574.03;5066755;28;20051;-76
2021/12/08 03:42:15;;;;;;;2.45;0.77;;;;;;;0.92;100.00;98577.56;5055337;28;20081;-76
2021/12/08 03:44:41;;;;;;;3.90;0.60;;;;;;;0.91;100.00;98579.50;5035564;28;20036;-76
2021/12/08 03:47:14;;;;;;;7.30;1.17;;;;;;;0.90;100.00;98588.81;5061606;28;20032;-76
2021/12/08 03:49:39;;;;;;;5.63;1.20;;;;;;;0.88;100.00;98585.53;5059634;28;20033;-76
2021/12/08 03:52:05;;;;;;;4.40;0.73;;;;;;;0.87;100.00;98573.78;5046471;28;20371;-76
2021/12/08 03:54:31;;;;;;;3.40;0.98;;;;;;;0.80;100.00;98570.50;5061401;28;20039;-76
2021/12/08 03:56:56;;;;;;;6.30;0.93;;;;;;;0.84;100.00;98573.53;5024848;28;20044;-76
2021/12/08 03:59:21;;;;;;;3.08;0.93;;;;;;;0.81;100.00;98568.63;5077972;28;20031;-76
2021/12/08 04:01:47;;;;;;;4.15;1.00;;;;;;;0.80;100.00;98566.97;5077588;28;20044;-76
2021/12/08 04:04:13;;;;;;;3.17;1.00;;;;;;;0.76;100.00;98563.16;5091239;28;20088;-77
2021/12/08 04:06:45;;;;;;;4.85;0.88;;;;;;;0.76;100.00;98563.97;5077323;28;20077;-76
2021/12/08 04:09:19;;;;;;;6.18;3.22;;;;;;;0.75;100.00;98570.50;5068563;28;20039;-77
2021/12/08 04:11:45;;;;;;;4.70;2.25;;;;;;;0.73;100.00;98577.38;5071143;28;20043;-76
2021/12/08 04:14:14;;;;;;;5.80;2.60;;;;;;;0.71;100.00;98582.28;5065260;28;20042;-76
2021/12/08 04:16:44;;;;;;;5.32;2.15;;;;;;;0.69;100.00;98582.56;5046629;28;20020;-76
2021/12/08 04:19:10;;;;;;;5.07;2.00;;;;;;;0.68;100.00;98596.50;5054273;28;20040;-76
2021/12/08 04:21:36;;;;;;;6.45;1.83;;;;;;;0.68;100.00;98599.25;5053799;28;20036;-76
2021/12/08 04:24:01;;;;;;;3.17;1.50;;;;;;;0.65;100.00;98597.88;5101801;28;20035;-76
2021/12/08 04:26:33;;;;;;;5.03;1.98;;;;;;;0.61;100.00;98611.28;5045381;28;20058;-76
2021/12/08 04:28:58;;;;;;;8.15;2.08;;;;;;;0.57;100.00;98612.91;5053915;28;20040;-76
2021/12/08 04:31:28;;;;;;;3.63;1.70;;;;;;;0.57;100.00;98623.00;5077100;28;20392;-76
2021/12/08 04:33:58;;;;;;;5.97;1.67;;;;;;;0.52;100.00;98634.75;5053419;28;20089;-76
2021/12/08 04:36:24;;;;;;;5.35;1.63;;;;;;;0.54;100.00;98638.03;5063660;28;20052;-77
2021/12/08 04:38:54;;;;;;;3.75;1.30;;;;;;;0.48;100.00;98630.94;5044634;28;20032;-76
2021/12/08 04:41:32;;;;;;;5.18;1.58;;;;;;;0.46;100.00;98627.66;5059254;28;20017;-76
2021/12/08 04:44:06;;;;;;;3.75;1.30;;;;;;;0.47;100.00;98621.09;5087385;28;20071;-76
2021/12/08 04:52:23;;;;;;;4.05;1.38;;;;;;;0.40;100.00;98623.31;5068185;28;20050;-76
2021/12/08 05:01:09;;;;;;;3.83;1.55;;;;;;;0.33;100.00;98612.63;5085251;28;20023;-76
2021/12/08 05:04:08;;;;;;;7.00;1.10;;;;;;;0.31;100.00;98614.84;5078534;28;20044;-76
2021/12/08 05:06:50;;;;;;;4.70;1.20;;;;;;;0.33;100.00;98609.09;5072925;28;20476;-76
2021/12/08 05:09:18;;;;;;;6.23;1.40;;;;;;;0.30;100.00;98612.38;5050932;28;20060;-76
2021/12/08 05:11:48;;;;;;;5.55;1.20;;;;;;;0.32;100.00;98608.28;5059478;28;20684;-76
2021/12/08 05:14:20;;;;;;;3.75;1.23;;;;;;;0.29;100.00;98610.75;5060647;28;20033;-76
2021/12/08 05:16:47;;;;;;;7.30;1.58;;;;;;;0.25;100.00;98610.44;5085269;28;20020;-76
2021/12/08 05:19:14;;;;;;;4.15;0.93;;;;;;;0.24;100.00;98617.00;5061477;28;20059;-76
2021/12/08 05:21:50;;;;;;;7.60;1.85;;;;;;;0.22;100.00;98630.09;5070927;28;20543;-76
2021/12/08 05:24:30;;;;;;;4.22;1.10;;;;;;;0.21;100.00;98625.75;5089073;28;20032;-76
2021/12/08 05:26:59;;;;;;;2.67;1.25;;;;;;;0.16;100.00;98618.38;5068790;28;20032;-76
2021/12/08 05:29:29;;;;;;;4.95;1.20;;;;;;;0.18;100.00;98624.38;5077607;28;20048;-76
2021/12/08 05:31:58;;;;;;;5.75;1.20;;;;;;;0.13;100.00;98620.81;5055529;28;20056;-76
2021/12/08 05:34:24;;;;;;;6.35;1.50;;;;;;;0.13;100.00;98613.44;5092962;28;20039;-76
2021/12/08 05:36:50;;;;;;;5.78;1.33;;;;;;;0.13;100.00;98624.38;5052283;28;20517;-76
2021/12/08 05:39:20;;;;;;;6.13;1.23;;;;;;;0.07;100.00;98620.00;5074651;28;20043;-76
2021/12/08 05:41:46;;;;;;;4.60;1.20;;;;;;;0.06;100.00;98615.66;5075434;28;20043;-76
2021/12/08 05:44:11;;;;;;;6.53;1.25;;;;;;;0.07;100.00;98620.00;5039666;28;20032;-76
2021/12/08 05:46:41;;;;;;;5.95;1.00;;;;;;;0.07;100.00;98627.38;5054785;28;20055;-76
2021/12/08 05:49:09;;;;;;;5.80;1.00;;;;;;;0.09;100.00;98625.19;5067296;28;20028;-76
2021/12/08 05:51:35;;;;;;;6.57;1.15;;;;;;;0.07;100.00;98630.09;5095341;28;20081;-75
2021/12/08 05:54:05;;;;;;;4.97;1.10;;;;;;;0.05;100.00;98637.75;5022469;28;20029;-75
2021/12/08 05:56:31;;;;;;;4.72;1.23;;;;;;;0.05;100.00;98635.81;5080240;28;20024;-76
2021/12/08 05:58:58;;;;;;;3.75;1.20;;;;;;;0.07;100.00;98630.91;5051638;28;20036;-76
2021/12/08 06:01:34;;;;;;;5.03;0.80;;;;;;;0.06;100.00;98639.41;5078351;28;20029;-76
2021/12/08 06:04:00;;;;;;;4.10;1.10;;;;;;;0.05;100.00;98644.00;5056078;28;20031;-76
2021/12/08 06:06:25;;;;;;;3.58;1.00;;;;;;;0.05;100.00;98654.94;5044388;28;20040;-76
2021/12/08 06:08:51;;;;;;;3.78;1.05;;;;;;;0.10;100.00;98673.25;5078368;28;20089;-76
2021/12/08 06:11:17;;;;;;;9.68;1.70;;;;;;;0.14;100.00;98686.09;5044046;28;20047;-76
2021/12/08 06:13:43;;;;;;;5.15;0.93;;;;;;;0.18;100.00;98687.16;5080092;28;20028;-76
2021/12/08 06:16:10;;;;;;;5.60;1.42;;;;;;;0.17;100.00;98696.47;5072844;28;20084;-75
2021/12/08 06:18:39;;;;;;;5.78;1.42;;;;;;;0.18;100.00;98703.56;5060720;28;20032;-76
2021/12/08 06:21:07;;;;;;;7.78;1.52;;;;;;;0.19;100.00;98704.38;5078881;28;20627;-75
2021/12/08 06:23:34;;;;;;;4.63;1.77;;;;;;;0.20;100.00;98706.84;5076503;28;20047;-76
2021/12/08 06:25:59;;;;;;;3.47;1.27;;;;;;;0.21;100.00;98705.75;5076142;28;20039;-76
2021/12/08 06:28:25;;;;;;;6.38;1.52;;;;;;;0.23;100.00;98702.75;5075242;28;20052;-76
2021/12/08 06:30:51;;;;;;;5.20;1.33;;;;;;;0.24;100.00;98717.22;5094817;28;20031;-76
2021/12/08 06:33:16;;;;;;;4.18;1.20;;;;;;;0.26;100.00;98720.50;5064783;28;20066;-76
2021/12/08 06:35:47;;;;;;;3.42;1.00;;;;;;;0.26;100.00;98712.31;5080383;28;20028;-76
2021/12/08 06:38:15;;;;;;;3.17;1.15;;;;;;;0.28;100.00;98712.84;5059333;28;20400;-76
2021/12/08 06:40:50;;;;;;;3.40;1.27;;;;;;;0.29;100.00;98700.84;5075732;28;20074;-76
2021/12/08 06:43:18;;;;;;;2.63;1.17;;;;;;;0.31;100.00;98704.94;5068358;28;20035;-76
2021/12/08 06:45:45;;;;;;;7.38;1.40;;;;;;;0.33;100.00;98710.94;5077177;28;20032;-77
2021/12/08 06:48:13;;;;;;;3.65;0.93;;;;;;;0.35;100.00;98708.75;5046219;28;20055;-77
2021/12/08 06:50:54;;;;;;;2.55;1.10;;;;;;;0.35;100.00;98697.03;5056103;28;20020;-76
2021/12/08 06:53:20;;;;;;;5.22;1.10;;;;;;;0.38;100.00;98713.69;5042016;28;20032;-77
2021/12/08 06:55:55;;;;;;;8.13;1.65;;;;;;;0.39;100.00;98714.50;5038771;28;20030;-77
2021/12/08 06:58:23;;;;;;;2.40;1.15;;;;;;;0.40;100.00;98716.16;5032975;28;20154;-76
2021/12/08 07:04:12;;;;;;;4.07;1.45;;;;;;;0.40;100.00;98722.44;5065177;28;20032;-77
2021/12/08 07:09:15;;;;;;;4.95;1.40;;;;;;;0.44;100.00;98728.16;5056321;28;20032;-77
2021/12/08 07:11:40;;;;;;;3.85;1.10;;;;;;;0.44;100.00;98722.69;5046328;28;20036;-76
2021/12/08 07:14:06;;;;;;;3.78;1.33;;;;;;;0.46;100.00;98734.19;5047008;28;20039;-77
2021/12/08 07:16:34;;;;;;;6.18;1.77;;;;;;;0.48;100.00;98745.66;5047759;28;20111;-76
2021/12/08 07:19:10;;;;;;;2.90;1.25;;;;;;;0.48;100.00;98748.41;5037693;28;20031;-76
2021/12/08 07:21:41;;;;;;;4.20;1.27;;;;;;;0.50;100.00;98743.47;5064863;28;20032;-76
2021/12/08 07:24:14;;;;;;;2.95;1.05;;;;;;;0.49;100.00;98750.03;5043240;28;20115;-77
2021/12/08 07:26:40;;;;;;;3.92;1.10;;;;;;;0.50;100.00;98765.31;5061722;28;20045;-77
2021/12/08 07:29:10;;;;;;;3.13;1.00;;;;;;;0.51;100.00;98766.97;5042627;28;20505;-79
2021/12/08 07:31:46;;;;;;;3.10;1.10;;;;;;;0.52;100.00;98763.13;5047887;28;20024;-75
2021/12/08 07:34:17;;;;;;;;;;;;;;;0.51;100.00;98766.97;5038027;28;20064;-76
2021/12/08 07:36:43;;;;;;;2.20;0.95;;;;;;;0.54;100.00;98758.22;5044578;28;20346;-76
2021/12/08 07:39:14;;;;;;;7.47;1.15;;;;;;;0.56;100.00;98764.25;5050186;28;20540;-76
2021/12/08 07:41:41;;;;;;;4.03;1.20;;;;;;;0.56;100.00;98771.63;5060988;28;20035;-76
2021/12/08 07:44:09;;;;;;;5.38;1.35;;;;;;;0.55;100.00;98770.78;5061345;28;20028;-76
2021/12/08 07:46:49;;;;;;;3.65;1.23;;;;;;;0.57;100.00;98767.81;5044440;28;20039;-76
2021/12/08 07:49:21;;;;;;;3.45;1.10;;;;;;;0.56;100.00;98756.06;5029263;28;20035;-76
2021/12/08 07:51:54;;;;;;;4.72;1.30;;;;;;;0.56;100.00;98752.50;5047458;28;20043;-75
2021/12/08 07:54:19;;;;;;;3.90;1.00;;;;;;;0.65;100.00;98748.94;5020190;28;20050;-75
2021/12/08 07:56:46;;;;;;;4.18;1.08;;;;;;;0.62;100.00;98744.03;5080757;28;20026;-75
2021/12/08 07:59:14;;;;;;;2.85;1.00;;;;;;;0.66;100.00;98734.19;5061911;28;20028;-75
2021/12/08 08:01:43;;;;;;;5.07;1.20;;;;;;;0.68;100.00;98727.66;5040697;28;20029;-75
2021/12/08 08:04:13;;;;;;;3.35;1.13;;;;;;;0.72;100.00;98728.72;5071850;28;20020;-75
2021/12/08 08:06:42;;;;;;;2.78;1.25;;;;;;;0.69;100.00;98707.44;5058238;28;20036;-75
2021/12/08 08:09:12;;;;;;;2.55;1.20;;;;;;;0.73;100.00;98706.63;5104148;28;20050;-75
2021/12/08 08:11:41;;;;;;;4.30;1.45;;;;;;;0.74;100.00;98693.75;5051624;28;20036;-75
2021/12/08 08:14:07;;;;;;;2.92;1.10;;;;;;;0.74;100.00;98680.09;5067861;28;20044;-73
2021/12/08 08:16:34;;;;;;;4.38;1.38;;;;;;;0.76;100.00;98667.00;5063168;28;20085;-72
2021/12/08 08:19:06;;;;;;;5.57;1.40;;;;;;;0.74;100.00;98682.84;5046850;28;20035;-73
2021/12/08 08:21:34;;;;;;;6.15;1.40;;;;;;;0.76;100.00;98713.44;5028491;28;20031;-72
2021/12/08 08:24:00;;;;;;;5.47;1.48;;;;;;;0.75;100.00;98750.84;5022039;28;20085;-72
2021/12/08 08:26:26;;;;;;;3.92;1.50;;;;;;;0.80;100.00;98783.66;5063749;28;20028;-72
2021/12/08 08:28:52;;;;;;;4.70;1.52;;;;;;;0.78;100.00;98787.75;5060132;28;20066;-73
2021/12/08 08:31:42;;;;;;;6.55;1.45;;;;;;;0.80;100.00;98791.84;5049905;28;20044;-73
2021/12/08 08:34:09;;;;;;;7.40;1.50;;;;;;;0.85;100.00;98800.06;5070447;28;20090;-72
2021/12/08 08:36:38;;;;;;;4.25;1.52;;;;;;;0.88;100.00;98820.56;5043955;28;20025;-72
2021/12/08 08:39:22;;;;;;;9.00;2.15;;;;;;;0.88;100.00;98815.09;5042166;28;20028;-72
2021/12/08 08:42:02;;;;;;;5.35;1.70;;;;;;;0.88;100.00;98815.09;5063534;28;20032;-72
2021/12/08 08:44:58;;;;;;;2.83;1.35;;;;;;;0.91;100.00;98828.22;5042733;28;20032;-72
2021/12/08 08:47:31;;;;;;;6.28;1.55;;;;;;;0.92;100.00;98821.69;5072298;28;20071;-72
2021/12/08 08:49:56;;;;;;;4.85;1.77;;;;;;;0.92;100.00;98818.94;5050770;28;20031;-72
2021/12/08 08:52:39;;;;;;;4.20;1.30;;;;;;;0.97;100.00;98812.66;5037956;28;20030;-73
2021/12/08 08:55:14;;;;;;;4.93;1.40;;;;;;;0.98;100.00;98817.03;5037741;28;20024;-72
2021/12/08 08:57:41;;;;;;;5.57;1.48;;;;;;;0.99;100.00;98816.75;5025284;28;20047;-73
2021/12/08 09:00:18;;;;;;;7.72;1.50;;;;;;;1.04;100.00;98818.69;5043648;28;20028;-72
2021/12/08 09:02:43;;;;;;;6.10;1.50;;;;;;;1.05;100.00;98815.66;5058721;28;20028;-73
2021/12/08 09:05:15;;;;;;;4.10;1.60;;;;;;;1.05;100.00;98815.66;5043438;28;20082;-72
2021/12/08 09:07:44;;;;;;;2.83;1.30;;;;;;;1.08;100.00;98817.03;5078318;28;20115;-72
2021/12/08 09:10:22;;;;;;;4.55;1.48;;;;;;;1.10;100.00;98821.13;5045493;28;20036;-72
2021/12/08 09:12:52;;;;;;;5.95;1.90;;;;;;;1.13;100.00;98816.22;5056190;28;20124;-73
2021/12/08 09:15:27;;;;;;;3.38;1.52;;;;;;;1.18;100.00;98827.16;5028524;28;20036;-72
2021/12/08 09:18:09;;;;;;;2.35;1.40;;;;;;;1.19;100.00;98820.59;5055508;28;20028;-72
2021/12/08 09:20:41;;;;;;;2.95;1.50;;;;;;;1.21;100.00;98818.41;5049782;28;20051;-72
2021/12/08 09:23:20;;;;;;;3.88;1.67;;;;;;;1.23;100.00;98822.50;5065329;28;20036;-72
2021/12/08 09:26:00;;;;;;;5.53;1.92;;;;;;;1.25;100.00;98831.25;5041132;28;20082;-73
2021/12/08 09:28:34;;;;;;;4.78;1.52;;;;;;;1.25;100.00;98820.28;5071433;28;20500;-73
2021/12/08 09:31:04;;;;;;;3.45;1.58;;;;;;;1.28;100.00;98829.88;5061665;28;20099;-73
2021/12/08 09:33:38;;;;;;;2.88;1.50;;;;;;;1.27;100.00;98837.25;5058031;28;20034;-73
2021/12/08 09:36:09;;;;;;;5.93;1.63;;;;;;;1.28;100.00;98830.72;5060539;28;20067;-73
2021/12/08 09:38:37;;;;;;;4.80;1.73;;;;;;;1.30;100.00;98844.09;5083912;28;20099;-73
2021/12/08 09:41:06;;;;;;;3.55;1.42;;;;;;;1.30;100.00;98836.72;5069706;28;20152;-73
2021/12/08 09:43:34;;;;;;;4.75;1.73;;;;;;;1.32;100.00;98833.72;5049550;28;20107;-73
2021/12/08 09:46:03;;;;;;;3.55;1.50;;;;;;;1.38;100.00;98845.47;5065142;28;20055;-73
2021/12/08 09:48:29;;;;;;;6.22;1.75;;;;;;;1.40;100.00;98854.22;5039656;28;20032;-73
2021/12/08 09:50:58;;;;;;;8.73;2.72;;;;;;;1.44;100.00;98858.88;5082214;28;20032;-73
2021/12/08 09:53:26;;;;;;;3.35;1.70;;;;;;;1.48;100.00;98857.22;5057828;28;20042;-73
2021/12/08 09:55:52;;;;;;;6.10;2.13;;;;;;;1.52;100.00;98854.75;5054196;28;20038;-73
2021/12/08 09:58:17;;;;;;;4.57;2.00;;;;;;;1.59;100.00;98862.69;5033338;28;20028;-73
2021/12/08 10:00:44;;;;;;;3.85;1.83;;;;;;;1.65;100.00;98856.13;5065535;28;20033;-73
2021/12/08 10:03:09;;;;;;;6.32;2.30;;;;;;;1.71;100.00;98836.66;5047409;28;20038;-73
2021/12/08 10:05:39;;;;;;;6.32;2.55;;;;;;;1.77;100.00;98848.44;5068015;28;20107;-73
2021/12/08 10:08:05;;;;;;;4.68;1.88;;;;;;;1.86;100.00;98841.28;5062477;28;20028;-73
2021/12/08 10:10:31;;;;;;;5.68;2.42;;;;;;;1.93;100.00;98836.34;5080109;28;20050;-73
2021/12/08 10:12:56;;;;;;;6.72;2.50;;;;;;;2.04;100.00;98841.81;5085194;28;20028;-73
2021/12/08 10:15:22;;;;;;;6.20;2.72;;;;;;;2.15;100.00;98837.94;5081552;28;20032;-73
2021/12/08 10:17:48;;;;;;;6.95;2.40;;;;;;;2.23;100.00;98832.69;5044152;28;20040;-73
2021/12/08 10:20:19;;;;;;;5.25;2.65;;;;;;;2.36;100.00;98838.66;5061557;28;20036;-73
2021/12/08 10:22:47;;;;;;;4.55;2.08;;;;;;;2.47;100.00;98843.81;5086135;28;20028;-73
2021/12/08 10:25:17;;;;;;;4.82;2.10;;;;;;;2.61;100.00;98840.44;5090047;28;20472;-73
2021/12/08 10:28:01;;;;;;;5.45;2.28;;;;;;;2.73;100.00;98846.44;5054218;28;20077;-73
2021/12/08 10:30:27;;;;;;;4.75;2.10;;;;;;;2.86;100.00;98850.44;5098157;28;20076;-73
2021/12/08 10:32:54;;;;;;;5.78;2.25;;;;;;;2.97;100.00;98856.69;5099485;28;20141;-73
2021/12/08 10:35:41;;;;;;;6.43;1.90;;;;;;;3.10;100.00;98843.16;5066925;28;20039;-74
2021/12/08 10:38:07;;;;;;;6.22;2.20;;;;;;;3.23;100.00;98841.69;5066593;28;20039;-73
2021/12/08 10:40:32;;;;;;;7.07;2.33;;;;;;;3.32;100.00;98837.22;5031545;28;20058;-73
2021/12/08 10:42:58;;;;;;;5.20;2.25;;;;;;;3.45;100.00;98857.69;5064867;28;20066;-73
2021/12/08 10:45:26;;;;;;;5.05;2.38;;;;;;;3.57;100.00;98860.88;5069092;28;20032;-73
2021/12/08 10:47:55;;;;;;;4.88;1.98;;;;;;;3.68;100.00;98860.81;5063437;28;20035;-73
2021/12/08 10:56:13;;;;;;;9.05;1.70;;;;;;;4.05;100.00;98890.38;5071579;28;20031;-73
2021/12/08 10:58:43;;;;;;;9.35;2.35;;;;;;;4.17;100.00;98910.00;5078283;28;20493;-73
2021/12/08 11:01:24;;;;;;;4.47;1.85;;;;;;;4.31;100.00;98920.31;5059961;28;20111;-73
2021/12/08 11:03:58;;;;;;;9.70;2.40;;;;;;;4.43;100.00;98915.22;5072316;28;20055;-73
2021/12/08 11:06:23;;;;;;;8.07;2.00;;;;;;;4.56;100.00;98914.53;5076944;28;20052;-74
2021/12/08 11:08:51;;;;;;;6.63;2.13;;;;;;;4.70;100.00;98912.69;5064045;28;20040;-73
2021/12/08 11:11:22;;;;;;;10.20;2.30;;;;;;;4.84;100.00;98921.03;5054484;28;20035;-73
2021/12/08 11:13:55;;;;;;;4.93;1.95;;;;;;;4.96;100.00;98915.13;5057144;28;20046;-74
2021/12/08 11:16:29;;;;;;;4.97;1.77;;;;;;;5.09;100.00;98917.13;5069992;28;20031;-73
2021/12/08 11:19:05;;;;;;;6.22;1.95;;;;;;;5.21;100.00;98915.88;5081447;28;20418;-73
2021/12/08 11:21:38;;;;;;;6.10;2.00;;;;;;;5.30;100.00;98908.59;5070921;28;20032;-73
2021/12/08 11:24:24;;;;;;;6.82;2.25;;;;;;;5.37;100.00;98909.03;5037313;28;20033;-73
2021/12/08 11:26:51;;;;;;;4.63;1.80;;;;;;;5.46;100.00;98906.41;5089389;28;20032;-73
2021/12/08 11:29:26;;;;;;;5.68;1.75;;;;;;;5.51;100.00;98907.13;5089328;28;20536;-73
2021/12/08 11:31:52;;;;;;;8.48;2.20;;;;;;;5.56;100.00;98901.56;5075914;28;20036;-73
2021/12/08 11:34:25;;;;;;;6.25;1.98;;;;;;;5.64;100.00;98913.84;5050173;28;20024;-73
2021/12/08 11:36:59;;;;;;;4.15;1.92;;;;;;;5.75;100.00;98908.97;5087423;28;20024;-74
2021/12/08 11:39:39;;;;;;;5.43;2.00;;;;;;;6.12;100.00;98910.00;5061805;28;20047;-72
2021/12/08 11:42:16;;;;;;;7.65;2.30;;;;;;;6.37;100.00;98904.00;5030718;28;20027;-73
2021/12/08 11:44:49;;;;;;;8.23;1.70;;;;;;;6.28;100.00;98899.53;5041175;28;20081;-74
2021/12/08 11:47:22;;;;;;;5.00;1.70;;;;;;;6.18;100.00;98906.84;5045415;28;20028;-74
2021/12/08 11:49:49;;;;;;;5.45;1.52;;;;;;;6.17;100.00;98909.94;5087198;28;20039;-73
2021/12/08 11:52:20;;;;;;;4.60;1.55;;;;;;;6.20;100.00;98906.56;5056601;28;20142;-73
2021/12/08 11:54:54;;;;;;;5.72;1.52;;;;;;;6.22;100.00;98916.16;5062844;28;20548;-73
2021/12/08 11:57:28;;;;;;;5.63;1.75;;;;;;;6.25;100.00;98917.50;5063724;28;20031;-73
2021/12/08 12:00:12;;;;;;;5.07;1.40;;;;;;;6.26;100.00;98925.44;5044106;28;20031;-73
2021/12/08 12:02:42;;;;;;;5.93;1.42;;;;;;;6.28;100.00;98927.91;5097258;28;20072;-73
2021/12/08 12:05:12;;;;;;;4.85;1.55;;;;;;;6.31;100.00;98921.78;5079919;28;20035;-73
2021/12/08 12:07:39;;;;;;;14.10;1.63;;;;;;;6.34;100.00;98912.91;5046096;28;20032;-73
2021/12/08 12:10:06;;;;;;;7.93;1.55;;;;;;;6.37;100.00;98928.84;5064067;28;20431;-73
2021/12/08 12:12:31;;;;;;;8.13;1.48;;;;;;;6.43;100.00;98930.38;5078703;28;20039;-73
2021/12/08 12:14:57;;;;;;;5.20;1.35;;;;;;;6.46;100.00;98931.69;5078155;28;20111;-73
2021/12/08 12:17:22;;;;;;;7.13;1.70;;;;;;;6.48;100.00;98907.41;5070348;28;20036;-73
2021/12/08 12:20:07;;;;;;;7.88;1.50;;;;;;;6.51;100.00;98914.25;5062193;28;20027;-73
2021/12/08 12:22:49;;;;;;;6.65;1.40;;;;;;;6.53;100.00;98912.00;5075116;28;20024;-76
2021/12/08 12:25:23;;;;;;;7.93;1.58;;;;;;;6.57;100.00;98918.53;5062814;28;20107;-76
2021/12/08 12:28:00;;;;;;;9.02;1.52;;;;;;;6.58;100.00;98920.19;5094769;28;20401;-77